createdAt,value
2023-09-24T00:00:30.564Z,15.3
2023-09-24T00:01:35.639Z,15.2
2023-09-24T00:02:40.672Z,15.2
2023-09-24T00:03:45.797Z,15.2
2023-09-24T00:04:51.397Z,15.2
2023-09-24T00:05:56.593Z,15.1
2023-09-24T00:07:01.563Z,15.1
2023-09-24T00:08:06.492Z,15.1
2023-09-24T00:09:11.300Z,15.1
2023-09-24T00:10:17.534Z,15.1
2023-09-24T00:11:22.457Z,14.9
2023-09-24T00:12:27.631Z,15
2023-09-24T00:13:32.692Z,15
2023-09-24T00:14:37.589Z,15
2023-09-24T00:15:42.623Z,15
2023-09-24T00:16:47.495Z,15
2023-09-24T00:17:52.609Z,15
2023-09-24T00:18:57.435Z,15
2023-09-24T00:20:02.337Z,15
2023-09-24T00:21:07.566Z,14.9
2023-09-24T00:22:12.416Z,14.8
2023-09-24T00:23:17.317Z,14.9
2023-09-24T00:24:22.347Z,14.8
2023-09-24T00:25:27.196Z,14.8
2023-09-24T00:26:32.098Z,14.8
2023-09-24T00:27:37.022Z,14.8
2023-09-24T00:28:42.006Z,14.8
2023-09-24T00:29:46.998Z,14.7
2023-09-24T00:30:51.939Z,14.7
2023-09-24T00:31:56.791Z,14.7
2023-09-24T00:33:01.870Z,14.7
2023-09-24T00:34:06.864Z,14.6
2023-09-24T00:35:14.081Z,14.6
2023-09-24T00:36:20.085Z,14.6
2023-09-24T00:37:26.235Z,14.6
2023-09-24T00:38:31.202Z,14.6
2023-09-24T00:39:37.215Z,14.6
2023-09-24T00:40:42.153Z,14.6
2023-09-24T00:41:47.182Z,14.5
2023-09-24T00:42:52.038Z,14.6
2023-09-24T00:43:57.020Z,14.7
2023-09-24T00:45:04.561Z,14.7
2023-09-24T00:46:09.945Z,14.7
2023-09-24T00:47:14.741Z,14.7
2023-09-24T00:48:19.907Z,14.6
2023-09-24T00:49:24.722Z,14.7
2023-09-24T00:50:29.641Z,14.7
2023-09-24T00:51:34.701Z,14.7
2023-09-24T00:52:39.746Z,14.7
2023-09-24T00:53:44.734Z,14.7
2023-09-24T00:54:49.579Z,14.7
2023-09-24T00:55:54.492Z,14.7
2023-09-24T00:56:59.443Z,14.8
2023-09-24T00:58:04.421Z,14.8
2023-09-24T00:59:10.380Z,14.7
2023-09-24T01:00:15.280Z,14.7
2023-09-24T01:01:20.354Z,14.8
2023-09-24T01:02:28.481Z,14.8
2023-09-24T01:03:33.457Z,14.8
2023-09-24T01:04:38.284Z,14.8
2023-09-24T01:05:43.276Z,14.8
2023-09-24T01:06:48.127Z,14.8
2023-09-24T01:07:53.085Z,14.8
2023-09-24T01:08:58.147Z,14.8
2023-09-24T01:10:03.058Z,14.8
2023-09-24T01:11:08.129Z,14.9
2023-09-24T01:12:13.074Z,14.9
2023-09-24T01:13:25.520Z,14.9
2023-09-24T01:14:30.547Z,14.8
2023-09-24T01:15:36.679Z,14.8
2023-09-24T01:16:44.305Z,14.8
2023-09-24T01:17:49.567Z,14.8
2023-09-24T01:18:54.552Z,14.8
2023-09-24T01:19:59.413Z,14.8
2023-09-24T01:21:04.316Z,14.9
2023-09-24T01:22:18.422Z,14.9
2023-09-24T01:23:23.458Z,14.8
2023-09-24T01:24:28.518Z,14.9
2023-09-24T01:25:35.854Z,14.9
2023-09-24T01:26:40.826Z,14.9
2023-09-24T01:27:45.849Z,14.9
2023-09-24T01:28:50.949Z,14.9
2023-09-24T01:29:58.665Z,14.9
2023-09-24T01:31:03.725Z,14.8
2023-09-24T01:32:08.849Z,14.8
2023-09-24T01:33:13.965Z,14.9
2023-09-24T01:34:18.982Z,14.9
2023-09-24T01:35:23.757Z,14.8
2023-09-24T01:36:28.776Z,14.8
2023-09-24T01:37:33.726Z,14.8
2023-09-24T01:38:38.625Z,14.8
2023-09-24T01:39:46.212Z,14.8
2023-09-24T01:40:52.424Z,14.8
2023-09-24T01:41:57.614Z,14.8
2023-09-24T01:43:02.547Z,14.8
2023-09-24T01:44:07.484Z,14.9
2023-09-24T01:45:12.438Z,14.8
2023-09-24T01:46:17.500Z,14.8
2023-09-24T01:47:22.522Z,14.7
2023-09-24T01:48:27.485Z,14.8
2023-09-24T01:49:32.227Z,14.8
2023-09-24T01:50:37.238Z,14.8
2023-09-24T01:51:42.204Z,14.8
2023-09-24T01:52:47.146Z,14.8
2023-09-24T01:53:52.126Z,14.9
2023-09-24T01:54:57.339Z,14.9
2023-09-24T01:56:02.426Z,14.9
2023-09-24T01:57:07.368Z,14.8
2023-09-24T01:58:12.244Z,14.8
2023-09-24T01:59:17.206Z,14.9
2023-09-24T02:00:22.177Z,14.8
2023-09-24T02:01:30.142Z,14.8
2023-09-24T02:02:35.217Z,14.8
2023-09-24T02:03:40.255Z,14.8
2023-09-24T02:04:45.029Z,14.8
2023-09-24T02:05:50.191Z,14.8
2023-09-24T02:06:55.146Z,14.8
2023-09-24T02:08:00.032Z,14.8
2023-09-24T02:09:04.941Z,14.8
2023-09-24T02:10:09.822Z,14.8
2023-09-24T02:11:14.839Z,14.7
2023-09-24T02:12:19.783Z,14.8
2023-09-24T02:13:24.697Z,14.7
2023-09-24T02:14:29.678Z,14.8
2023-09-24T02:15:34.912Z,14.8
2023-09-24T02:16:39.741Z,14.7
2023-09-24T02:17:44.839Z,14.7
2023-09-24T02:18:49.854Z,14.7
2023-09-24T02:19:54.697Z,14.7
2023-09-24T02:21:02.361Z,14.7
2023-09-24T02:22:07.229Z,14.7
2023-09-24T02:23:12.161Z,14.7
2023-09-24T02:24:17.243Z,14.7
2023-09-24T02:25:22.139Z,14.7
2023-09-24T02:26:27.113Z,14.6
2023-09-24T02:27:32.187Z,14.6
2023-09-24T02:28:37.092Z,14.6
2023-09-24T02:29:44.717Z,14.6
2023-09-24T02:30:49.713Z,14.6
2023-09-24T02:31:54.537Z,14.7
2023-09-24T02:32:59.582Z,14.6
2023-09-24T02:34:04.700Z,14.7
2023-09-24T02:35:09.675Z,14.7
2023-09-24T02:36:17.587Z,14.7
2023-09-24T02:37:22.608Z,14.7
2023-09-24T02:38:27.589Z,14.7
2023-09-24T02:39:32.450Z,14.7
2023-09-24T02:40:37.443Z,14.7
2023-09-24T02:41:42.327Z,14.7
2023-09-24T02:42:47.465Z,14.7
2023-09-24T02:43:52.403Z,14.7
2023-09-24T02:44:57.517Z,14.6
2023-09-24T02:46:02.453Z,14.6
2023-09-24T02:47:07.374Z,14.6
2023-09-24T02:48:14.909Z,14.6
2023-09-24T02:49:19.864Z,14.6
2023-09-24T02:50:24.924Z,14.6
2023-09-24T02:51:29.746Z,14.7
2023-09-24T02:52:34.774Z,14.7
2023-09-24T02:53:40.585Z,14.7
2023-09-24T02:54:45.788Z,14.7
2023-09-24T02:55:50.803Z,14.7
2023-09-24T02:56:55.781Z,14.7
2023-09-24T02:58:00.726Z,14.7
2023-09-24T02:59:05.720Z,14.7
2023-09-24T03:00:10.826Z,14.7
2023-09-24T03:01:20.889Z,14.7
2023-09-24T03:02:25.968Z,14.8
2023-09-24T03:03:31.088Z,14.8
2023-09-24T03:04:36.134Z,14.7
2023-09-24T03:05:41.401Z,14.7
2023-09-24T03:06:46.234Z,14.7
2023-09-24T03:07:51.594Z,14.7
2023-09-24T03:08:56.122Z,14.7
2023-09-24T03:10:02.171Z,14.7
2023-09-24T03:11:07.416Z,14.7
2023-09-24T03:12:17.268Z,14.7
2023-09-24T03:13:22.289Z,14.8
2023-09-24T03:14:27.197Z,14.8
2023-09-24T03:15:32.106Z,14.8
2023-09-24T03:16:37.203Z,14.8
2023-09-24T03:17:42.171Z,14.7
2023-09-24T03:18:47.136Z,14.6
2023-09-24T03:19:53.848Z,14.6
2023-09-24T03:21:00.305Z,14.7
2023-09-24T03:22:05.184Z,14.7
2023-09-24T03:23:10.484Z,14.6
2023-09-24T03:24:15.163Z,14.7
2023-09-24T03:25:20.147Z,14.7
2023-09-24T03:26:25.231Z,14.7
2023-09-24T03:27:30.057Z,14.7
2023-09-24T03:28:34.935Z,14.7
2023-09-24T03:29:40.091Z,14.7
2023-09-24T03:30:45.073Z,14.7
2023-09-24T03:31:50.164Z,14.8
2023-09-24T03:32:55.100Z,14.7
2023-09-24T03:33:59.948Z,14.7
2023-09-24T03:35:04.945Z,14.7
2023-09-24T03:36:10.942Z,14.7
2023-09-24T03:37:15.937Z,14.6
2023-09-24T03:38:20.780Z,14.6
2023-09-24T03:39:29.667Z,14.7
2023-09-24T03:40:34.562Z,14.7
2023-09-24T03:41:39.582Z,14.6
2023-09-24T03:42:44.490Z,14.6
2023-09-24T03:43:49.736Z,14.6
2023-09-24T03:44:54.338Z,14.6
2023-09-24T03:45:59.322Z,14.7
2023-09-24T03:47:04.213Z,14.7
2023-09-24T03:48:09.208Z,14.6
2023-09-24T03:49:14.105Z,14.6
2023-09-24T03:50:19.045Z,14.6
2023-09-24T03:51:23.940Z,14.6
2023-09-24T03:52:28.986Z,14.6
2023-09-24T03:53:34.060Z,14.6
2023-09-24T03:54:38.958Z,14.6
2023-09-24T03:55:43.891Z,14.5
2023-09-24T03:56:48.829Z,14.5
2023-09-24T03:57:53.814Z,14.5
2023-09-24T03:58:58.745Z,14.5
2023-09-24T04:00:03.760Z,14.5
2023-09-24T04:01:13.771Z,14.5
2023-09-24T04:02:18.645Z,14.5
2023-09-24T04:03:23.946Z,14.5
2023-09-24T04:04:28.860Z,14.5
2023-09-24T04:05:33.824Z,14.5
2023-09-24T04:06:38.711Z,14.5
2023-09-24T04:07:43.691Z,14.5
2023-09-24T04:08:48.785Z,14.5
2023-09-24T04:09:54.562Z,14.5
2023-09-24T04:11:49.025Z,14.5
2023-09-24T04:12:53.845Z,14.5
2023-09-24T04:13:58.457Z,14.5
2023-09-24T04:15:03.377Z,14.5
2023-09-24T04:16:08.271Z,14.5
2023-09-24T04:17:12.925Z,14.5
2023-09-24T04:18:17.739Z,14.5
2023-09-24T04:19:23.142Z,14.5
2023-09-24T04:20:31.264Z,14.4
2023-09-24T04:21:38.711Z,14.4
2023-09-24T04:22:43.481Z,14.4
2023-09-24T04:23:48.424Z,14.4
2023-09-24T04:24:52.900Z,14.3
2023-09-24T04:25:57.556Z,14.3
2023-09-24T04:27:02.343Z,14.3
2023-09-24T04:28:07.159Z,14.3
2023-09-24T04:29:11.878Z,14.3
2023-09-24T04:30:16.679Z,14.3
2023-09-24T04:31:21.419Z,14.2
2023-09-24T04:32:26.253Z,14.3
2023-09-24T04:33:30.977Z,14.3
2023-09-24T04:34:35.884Z,14.3
2023-09-24T04:35:40.706Z,14.3
2023-09-24T04:36:45.717Z,14.3
2023-09-24T04:37:50.849Z,14.3
2023-09-24T04:38:55.752Z,14.2
2023-09-24T04:40:00.539Z,14.2
2023-09-24T04:41:05.541Z,14.2
2023-09-24T04:42:10.661Z,14.1
2023-09-24T04:43:15.588Z,14.2
2023-09-24T04:44:20.716Z,14.1
2023-09-24T04:45:25.713Z,14.1
2023-09-24T04:46:30.804Z,14.1
2023-09-24T04:47:35.937Z,14.1
2023-09-24T04:48:43.891Z,14.2
2023-09-24T04:49:48.636Z,14.2
2023-09-24T04:50:53.549Z,14.1
2023-09-24T04:52:01.306Z,14.1
2023-09-24T04:53:06.274Z,14.1
2023-09-24T04:54:12.026Z,14.1
2023-09-24T04:55:16.946Z,14.2
2023-09-24T04:56:22.089Z,14.2
2023-09-24T04:57:27.141Z,14.2
2023-09-24T04:58:32.139Z,14.2
2023-09-24T04:59:37.018Z,14.1
2023-09-24T05:00:41.960Z,14.1
2023-09-24T05:01:46.905Z,14.2
2023-09-24T05:02:52.037Z,14.2
2023-09-24T05:03:57.252Z,14.2
2023-09-24T05:05:02.021Z,14.2
2023-09-24T05:06:07.084Z,14.2
2023-09-24T05:07:12.089Z,14.2
2023-09-24T05:08:16.975Z,14.3
2023-09-24T05:09:21.910Z,14.3
2023-09-24T05:10:26.842Z,14.3
2023-09-24T05:11:31.752Z,14.2
2023-09-24T05:12:37.868Z,14.3
2023-09-24T05:13:42.931Z,14.2
2023-09-24T05:14:47.982Z,14.2
2023-09-24T05:15:53.023Z,14.3
2023-09-24T05:17:00.515Z,14.3
2023-09-24T05:18:05.506Z,14.3
2023-09-24T05:19:10.540Z,14.2
2023-09-24T05:20:15.628Z,14.2
2023-09-24T05:21:20.604Z,14.2
2023-09-24T05:22:25.599Z,14.2
2023-09-24T05:23:30.780Z,14.2
2023-09-24T05:24:35.953Z,14.2
2023-09-24T05:25:40.996Z,14.1
2023-09-24T05:26:46.346Z,14.1
2023-09-24T05:27:51.305Z,14.1
2023-09-24T05:28:56.211Z,14.2
2023-09-24T05:30:01.363Z,14.2
2023-09-24T05:31:06.364Z,14.2
2023-09-24T05:32:11.335Z,14.3
2023-09-24T05:33:16.474Z,14.3
2023-09-24T05:34:21.347Z,14.4
2023-09-24T05:35:26.304Z,14.4
2023-09-24T05:36:31.528Z,14.4
2023-09-24T05:37:36.497Z,14.3
2023-09-24T05:38:41.668Z,14.4
2023-09-24T05:39:46.681Z,14.3
2023-09-24T05:40:51.573Z,14.3
2023-09-24T05:41:56.564Z,14.3
2023-09-24T05:43:01.559Z,14.1
2023-09-24T05:44:06.652Z,14
2023-09-24T05:45:11.701Z,14.1
2023-09-24T05:46:16.658Z,14.2
2023-09-24T05:47:21.721Z,14.2
2023-09-24T05:48:26.699Z,14.3
2023-09-24T05:49:31.616Z,14.2
2023-09-24T05:50:36.585Z,14.3
2023-09-24T05:51:41.505Z,14.3
2023-09-24T05:52:46.585Z,14.3
2023-09-24T05:53:51.594Z,14.4
2023-09-24T05:54:56.436Z,14.4
2023-09-24T05:56:01.497Z,14.3
2023-09-24T05:57:06.570Z,14.4
2023-09-24T05:58:11.599Z,14.3
2023-09-24T05:59:16.607Z,14.4
2023-09-24T06:00:21.600Z,14.4
2023-09-24T06:01:26.705Z,14.5
2023-09-24T06:02:31.669Z,14.5
2023-09-24T06:03:36.639Z,14.4
2023-09-24T06:04:41.493Z,14.5
2023-09-24T06:05:46.810Z,14.3
2023-09-24T06:06:51.761Z,14.3
2023-09-24T06:07:56.818Z,14.3
2023-09-24T06:09:02.074Z,14.3
2023-09-24T06:10:10.102Z,14.4
2023-09-24T06:11:15.130Z,14.4
2023-09-24T06:12:20.276Z,14.4
2023-09-24T06:13:25.623Z,14.4
2023-09-24T06:14:30.586Z,14.4
2023-09-24T06:15:35.718Z,14.4
2023-09-24T06:16:40.816Z,14.4
2023-09-24T06:17:46.836Z,14.4
2023-09-24T06:18:51.963Z,14.5
2023-09-24T06:19:56.914Z,14.5
2023-09-24T06:21:01.824Z,14.5
2023-09-24T06:22:06.903Z,14.5
2023-09-24T06:23:12.171Z,14.4
2023-09-24T06:24:18.102Z,14.4
2023-09-24T06:25:22.951Z,14.4
2023-09-24T06:26:27.935Z,14.5
2023-09-24T06:27:35.895Z,14.4
2023-09-24T06:28:40.895Z,14.3
2023-09-24T06:29:45.935Z,14.2
2023-09-24T06:30:50.827Z,14.3
2023-09-24T06:32:03.654Z,14.2
2023-09-24T06:33:08.848Z,14.2
2023-09-24T06:34:14.063Z,14.2
2023-09-24T06:35:19.083Z,14.2
2023-09-24T06:36:24.178Z,14.3
2023-09-24T06:37:29.173Z,14.2
2023-09-24T06:38:35.151Z,14.3
2023-09-24T06:39:39.457Z,14.1
2023-09-24T06:40:44.399Z,13.9
2023-09-24T06:41:49.277Z,14.1
2023-09-24T06:42:54.619Z,14.2
2023-09-24T06:43:59.526Z,14.2
2023-09-24T06:45:04.754Z,14
2023-09-24T06:46:11.291Z,14
2023-09-24T06:47:16.549Z,14.1
2023-09-24T06:48:22.126Z,14.2
2023-09-24T06:49:26.479Z,14.3
2023-09-24T06:50:31.797Z,14.3
2023-09-24T06:51:36.607Z,14.2
2023-09-24T06:52:41.614Z,14.3
2023-09-24T06:53:46.886Z,14.4
2023-09-24T06:54:51.651Z,14.5
2023-09-24T06:55:56.738Z,14.2
2023-09-24T06:57:01.886Z,14.4
2023-09-24T06:58:06.842Z,14.5
2023-09-24T06:59:11.906Z,14.5
2023-09-24T07:00:16.887Z,14.5
2023-09-24T07:01:22.367Z,14.5
2023-09-24T07:02:27.489Z,14.5
2023-09-24T07:03:32.467Z,14.6
2023-09-24T07:04:37.771Z,14.6
2023-09-24T07:05:43.306Z,14.6
2023-09-24T07:06:48.244Z,14.6
2023-09-24T07:07:53.086Z,14.7
2023-09-24T07:08:58.137Z,14.6
2023-09-24T07:10:05.848Z,14.6
2023-09-24T07:11:11.216Z,14.6
2023-09-24T07:12:24.249Z,14.6
2023-09-24T07:13:29.119Z,14.6
2023-09-24T07:14:34.055Z,14.6
2023-09-24T07:15:39.039Z,14.6
2023-09-24T07:16:46.421Z,14.6
2023-09-24T07:17:49.376Z,14.7
2023-09-24T07:18:54.298Z,14.6
2023-09-24T07:19:59.318Z,14.4
2023-09-24T07:21:04.465Z,14.5
2023-09-24T07:22:09.347Z,14.7
2023-09-24T07:23:14.384Z,14.7
2023-09-24T07:24:19.375Z,14.7
2023-09-24T07:25:24.303Z,14.7
2023-09-24T07:26:30.292Z,14.6
2023-09-24T07:27:35.392Z,14.5
2023-09-24T07:28:40.288Z,14.8
2023-09-24T07:29:46.325Z,14.8
2023-09-24T07:30:51.194Z,14.8
2023-09-24T07:31:56.129Z,14.9
2023-09-24T07:33:01.179Z,15
2023-09-24T07:34:07.323Z,15.1
2023-09-24T07:35:13.309Z,15
2023-09-24T07:36:31.014Z,14.9
2023-09-24T07:37:23.697Z,15.1
2023-09-24T07:38:28.586Z,15.2
2023-09-24T07:39:33.514Z,15.3
2023-09-24T07:40:38.560Z,15.3
2023-09-24T07:41:43.540Z,15.1
2023-09-24T07:42:48.645Z,15
2023-09-24T07:43:54.011Z,15.2
2023-09-24T07:44:59.078Z,14.8
2023-09-24T07:46:04.022Z,14.4
2023-09-24T07:47:08.931Z,14.6
2023-09-24T07:48:14.057Z,14.8
2023-09-24T07:49:18.852Z,14.6
2023-09-24T07:50:23.986Z,14.6
2023-09-24T07:51:29.046Z,14.9
2023-09-24T07:52:33.924Z,15
2023-09-24T07:53:38.993Z,14.9
2023-09-24T07:54:44.645Z,15.1
2023-09-24T07:55:48.706Z,15.2
2023-09-24T07:56:58.636Z,15.4
2023-09-24T07:58:03.665Z,15.4
2023-09-24T07:59:09.426Z,15.5
2023-09-24T08:00:14.814Z,15.6
2023-09-24T08:01:19.871Z,15.5
2023-09-24T08:02:25.014Z,15.6
2023-09-24T08:03:29.932Z,15.6
2023-09-24T08:04:34.870Z,15.7
2023-09-24T08:05:39.861Z,15.7
2023-09-24T08:06:44.881Z,15.8
2023-09-24T08:07:49.735Z,15.8
2023-09-24T08:09:00.333Z,15.9
2023-09-24T08:09:59.545Z,15.8
2023-09-24T08:11:04.486Z,15.8
2023-09-24T08:12:09.432Z,15.8
2023-09-24T08:13:14.304Z,15.8
2023-09-24T08:14:19.245Z,15.8
2023-09-24T08:15:24.445Z,15.9
2023-09-24T08:16:29.664Z,15.9
2023-09-24T08:17:34.562Z,15.6
2023-09-24T08:18:39.831Z,15.7
2023-09-24T08:19:44.727Z,15.8
2023-09-24T08:20:49.679Z,16
2023-09-24T08:21:54.708Z,15.9
2023-09-24T08:22:59.649Z,16
2023-09-24T08:24:04.617Z,16
2023-09-24T08:25:09.741Z,15.8
2023-09-24T08:26:14.640Z,15.8
2023-09-24T08:27:19.692Z,15.9
2023-09-24T08:28:24.730Z,16.1
2023-09-24T08:29:29.719Z,16.1
2023-09-24T08:30:34.621Z,16.2
2023-09-24T08:31:39.588Z,16.2
2023-09-24T08:32:44.524Z,16.3
2023-09-24T08:33:50.295Z,16.1
2023-09-24T08:34:54.927Z,16
2023-09-24T08:35:59.918Z,16.2
2023-09-24T08:37:05.303Z,16.3
2023-09-24T08:38:10.220Z,16.3
2023-09-24T08:39:15.111Z,16.2
2023-09-24T08:40:20.037Z,16.4
2023-09-24T08:41:25.137Z,16.4
2023-09-24T08:42:30.279Z,16.5
2023-09-24T08:43:35.440Z,16.4
2023-09-24T08:44:40.409Z,16.5
2023-09-24T08:45:45.381Z,16.6
2023-09-24T08:46:50.740Z,16.6
2023-09-24T08:47:56.419Z,16.8
2023-09-24T08:49:01.563Z,16.8
2023-09-24T08:50:07.008Z,16.7
2023-09-24T08:51:12.388Z,16.7
2023-09-24T08:52:17.370Z,16.8
2023-09-24T08:53:22.298Z,16.7
2023-09-24T08:54:27.386Z,16.8
2023-09-24T08:55:32.649Z,16.6
2023-09-24T08:56:37.862Z,16.5
2023-09-24T08:57:43.028Z,16.6
2023-09-24T08:58:48.370Z,16.7
2023-09-24T08:59:53.242Z,16.8
2023-09-24T09:00:58.171Z,16.8
2023-09-24T09:02:03.198Z,16.7
2023-09-24T09:03:08.133Z,16.8
2023-09-24T09:04:13.200Z,16.5
2023-09-24T09:05:18.118Z,16.6
2023-09-24T09:06:25.649Z,16.5
2023-09-24T09:07:38.441Z,16.5
2023-09-24T09:08:53.892Z,16.4
2023-09-24T09:09:58.257Z,16.5
2023-09-24T09:11:06.326Z,16.1
2023-09-24T09:12:11.274Z,16.2
2023-09-24T09:13:21.137Z,16.1
2023-09-24T09:14:26.164Z,16.4
2023-09-24T09:15:36.222Z,16.5
2023-09-24T09:16:43.975Z,16.6
2023-09-24T09:17:58.937Z,16.4
2023-09-24T09:19:06.741Z,16.6
2023-09-24T09:20:11.745Z,16.8
2023-09-24T09:21:16.849Z,16.8
2023-09-24T09:22:29.469Z,16.9
2023-09-24T09:23:37.483Z,16.9
2023-09-24T09:24:40.775Z,16.9
2023-09-24T09:25:45.897Z,16.9
2023-09-24T09:26:53.694Z,17
2023-09-24T09:27:58.668Z,17
2023-09-24T09:29:03.566Z,16.6
2023-09-24T09:30:08.708Z,16.5
2023-09-24T09:31:16.630Z,16.7
2023-09-24T09:32:21.972Z,16.8
2023-09-24T09:33:27.119Z,16.9
2023-09-24T09:34:32.102Z,17
2023-09-24T09:35:37.217Z,17
2023-09-24T09:36:42.094Z,17.1
2023-09-24T09:37:47.125Z,17
2023-09-24T09:38:52.134Z,17.1
2023-09-24T09:39:56.958Z,17.1
2023-09-24T09:41:01.870Z,17.1
2023-09-24T09:42:06.802Z,16.9
2023-09-24T09:43:12.383Z,17.1
2023-09-24T09:44:17.604Z,16.8
2023-09-24T09:45:22.563Z,16.5
2023-09-24T09:46:27.816Z,16.5
2023-09-24T09:47:33.106Z,16.8
2023-09-24T09:48:48.940Z,17
2023-09-24T09:49:58.764Z,17.1
2023-09-24T09:51:03.764Z,17.3
2023-09-24T09:52:08.795Z,17.3
2023-09-24T09:53:13.743Z,17.3
2023-09-24T09:54:19.309Z,17.2
2023-09-24T09:55:24.217Z,17.2
2023-09-24T09:56:29.215Z,17.4
2023-09-24T09:57:34.288Z,17.4
2023-09-24T09:58:39.738Z,17.4
2023-09-24T09:59:44.636Z,17.2
2023-09-24T10:00:49.608Z,16.9
2023-09-24T10:01:54.688Z,17.1
2023-09-24T10:02:59.698Z,17.3
2023-09-24T10:04:04.564Z,17.6
2023-09-24T10:05:09.729Z,17.8
2023-09-24T10:06:14.653Z,17.7
2023-09-24T10:07:19.601Z,17.8
2023-09-24T10:08:24.683Z,17.8
2023-09-24T10:09:39.541Z,17.7
2023-09-24T10:10:44.590Z,17.6
2023-09-24T10:11:49.586Z,17.4
2023-09-24T10:12:54.469Z,17.5
2023-09-24T10:13:59.566Z,17.6
2023-09-24T10:15:04.448Z,17.4
2023-09-24T10:16:19.339Z,17.3
2023-09-24T10:17:29.410Z,17.6
2023-09-24T10:18:34.426Z,17.5
2023-09-24T10:19:39.301Z,17.5
2023-09-24T10:20:51.770Z,17.6
2023-09-24T10:22:02.460Z,17.7
2023-09-24T10:23:07.404Z,17.6
2023-09-24T10:24:22.185Z,17.5
2023-09-24T10:25:27.285Z,17.6
2023-09-24T10:26:35.024Z,17.7
2023-09-24T10:27:58.252Z,17.6
2023-09-24T10:29:02.561Z,17.8
2023-09-24T10:30:07.693Z,17.9
2023-09-24T10:31:12.708Z,17.8
2023-09-24T10:32:17.963Z,17.8
2023-09-24T10:33:22.873Z,17.7
2023-09-24T10:34:37.664Z,17.8
2023-09-24T10:35:52.556Z,17.9
2023-09-24T10:37:08.444Z,17.9
2023-09-24T10:38:14.953Z,17.9
2023-09-24T10:39:18.506Z,17.5
2023-09-24T10:40:23.720Z,17.4
2023-09-24T10:41:28.840Z,17.7
2023-09-24T10:42:33.861Z,17.3
2023-09-24T10:43:39.039Z,17.4
2023-09-24T10:44:44.877Z,17.7
2023-09-24T10:45:50.226Z,17.8
2023-09-24T10:46:57.261Z,17.8
2023-09-24T10:48:00.793Z,17.7
2023-09-24T10:49:05.979Z,17.8
2023-09-24T10:50:09.004Z,17.8
2023-09-24T10:51:22.053Z,17.7
2023-09-24T10:52:27.606Z,17.4
2023-09-24T10:53:32.616Z,17.5
2023-09-24T10:54:37.682Z,17.6
2023-09-24T10:55:44.069Z,17.8
2023-09-24T10:56:47.832Z,17.9
2023-09-24T10:57:52.809Z,17.9
2023-09-24T10:58:57.799Z,17.9
2023-09-24T11:00:02.773Z,18
2023-09-24T11:01:08.290Z,18
2023-09-24T11:02:13.410Z,17.8
2023-09-24T11:03:21.171Z,17.6
2023-09-24T11:04:26.652Z,17.7
2023-09-24T11:05:31.356Z,17.8
2023-09-24T11:06:43.974Z,17.9
2023-09-24T11:07:49.016Z,17.9
2023-09-24T11:08:55.107Z,17.9
2023-09-24T11:10:00.062Z,17.9
2023-09-24T11:11:05.088Z,17.9
2023-09-24T11:12:10.101Z,18
2023-09-24T11:13:14.863Z,18
2023-09-24T11:14:19.849Z,18
2023-09-24T11:15:28.317Z,17.9
2023-09-24T11:16:36.288Z,18
2023-09-24T11:17:41.453Z,17.8
2023-09-24T11:18:46.387Z,18
2023-09-24T11:19:51.293Z,17.9
2023-09-24T11:20:56.399Z,17.8
2023-09-24T11:22:02.870Z,18
2023-09-24T11:23:17.594Z,18
2023-09-24T11:24:22.538Z,17.9
2023-09-24T11:25:27.600Z,17.6
2023-09-24T11:26:32.618Z,17.6
2023-09-24T11:27:37.495Z,17.7
2023-09-24T11:28:52.317Z,17.7
2023-09-24T11:29:57.308Z,17.7
2023-09-24T11:31:02.409Z,17.5
2023-09-24T11:32:07.322Z,17.6
2023-09-24T11:33:13.290Z,17.8
2023-09-24T11:34:18.154Z,17.9
2023-09-24T11:35:26.182Z,17.8
2023-09-24T11:36:31.222Z,17.9
2023-09-24T11:37:36.179Z,17.8
2023-09-24T11:38:49.040Z,17.7
2023-09-24T11:39:53.666Z,17.7
2023-09-24T11:40:58.702Z,17.8
2023-09-24T11:42:14.590Z,17.9
2023-09-24T11:43:22.808Z,17.9
2023-09-24T11:44:28.142Z,17.9
2023-09-24T11:45:33.243Z,17.9
2023-09-24T11:46:43.223Z,17.9
2023-09-24T11:47:48.348Z,18
2023-09-24T11:48:53.832Z,17.8
2023-09-24T11:49:58.342Z,17.9
2023-09-24T11:51:03.437Z,17.6
2023-09-24T11:52:08.511Z,17.9
2023-09-24T11:53:16.641Z,18
2023-09-24T11:54:22.848Z,18.1
2023-09-24T11:55:27.809Z,17.9
2023-09-24T11:56:32.993Z,18
2023-09-24T11:57:38.010Z,18
2023-09-24T11:58:43.270Z,18.1
2023-09-24T11:59:48.457Z,17.9
2023-09-24T12:00:53.484Z,17.5
2023-09-24T12:01:58.481Z,17.7
2023-09-24T12:03:03.689Z,17.6
2023-09-24T12:04:08.663Z,17.6
2023-09-24T12:05:22.892Z,17.8
2023-09-24T12:06:18.314Z,17.9
2023-09-24T12:07:23.103Z,18
2023-09-24T12:08:27.804Z,18
2023-09-24T12:09:32.774Z,18
2023-09-24T12:10:37.418Z,18.1
2023-09-24T12:11:42.284Z,18
2023-09-24T12:12:47.220Z,18.1
2023-09-24T12:13:52.138Z,18
2023-09-24T12:14:56.807Z,18.1
2023-09-24T12:16:01.743Z,18.1
2023-09-24T12:17:06.539Z,18.2
2023-09-24T12:18:11.381Z,18.3
2023-09-24T12:19:16.557Z,18.2
2023-09-24T12:20:21.758Z,18.3
2023-09-24T12:21:29.602Z,18.2
2023-09-24T12:22:34.773Z,18.2
2023-09-24T12:23:39.937Z,18.1
2023-09-24T12:24:45.038Z,18.2
2023-09-24T12:25:49.938Z,18.3
2023-09-24T12:26:54.989Z,18.3
2023-09-24T12:27:59.942Z,18.3
2023-09-24T12:29:05.006Z,18.3
2023-09-24T12:30:10.179Z,18.2
2023-09-24T12:31:15.248Z,18.2
2023-09-24T12:32:20.146Z,18.4
2023-09-24T12:33:25.451Z,18.3
2023-09-24T12:34:30.250Z,18.5
2023-09-24T12:35:35.426Z,18.4
2023-09-24T12:36:40.452Z,18.4
2023-09-24T12:37:45.444Z,18.4
2023-09-24T12:38:50.523Z,18.4
2023-09-24T12:39:56.284Z,18.4
2023-09-24T12:41:02.430Z,18.3
2023-09-24T12:42:07.412Z,18.3
2023-09-24T12:43:12.478Z,18.4
2023-09-24T12:44:17.538Z,18.5
2023-09-24T12:45:22.450Z,18.3
2023-09-24T12:46:27.417Z,18.1
2023-09-24T12:47:32.461Z,18.2
2023-09-24T12:48:37.491Z,18.4
2023-09-24T12:49:42.409Z,18.3
2023-09-24T12:50:47.377Z,18.3
2023-09-24T12:51:52.310Z,18.3
2023-09-24T12:52:57.227Z,18.2
2023-09-24T12:54:02.377Z,18.3
2023-09-24T12:55:08.469Z,18.5
2023-09-24T12:56:13.488Z,18.5
2023-09-24T12:57:18.453Z,18.7
2023-09-24T12:58:24.044Z,18.7
2023-09-24T12:59:28.308Z,18.7
2023-09-24T13:00:34.201Z,18.6
2023-09-24T13:01:39.249Z,18.7
2023-09-24T13:02:44.237Z,18.7
2023-09-24T13:03:49.273Z,18.6
2023-09-24T13:04:54.148Z,18.5
2023-09-24T13:05:59.208Z,18.4
2023-09-24T13:07:04.215Z,18.5
2023-09-24T13:08:09.367Z,18.3
2023-09-24T13:09:14.378Z,18.3
2023-09-24T13:10:22.320Z,18.4
2023-09-24T13:11:28.010Z,17.9
2023-09-24T13:12:32.488Z,17.8
2023-09-24T13:13:37.498Z,17.8
2023-09-24T13:14:42.489Z,17.9
2023-09-24T13:15:47.691Z,18
2023-09-24T13:16:52.564Z,17.9
2023-09-24T13:17:57.755Z,17.8
2023-09-24T13:19:03.664Z,18
2023-09-24T13:20:07.716Z,18.1
2023-09-24T13:21:12.664Z,18.3
2023-09-24T13:22:17.556Z,18.4
2023-09-24T13:23:22.729Z,18.4
2023-09-24T13:24:27.866Z,18.3
2023-09-24T13:25:32.814Z,18.4
2023-09-24T13:26:37.915Z,18.4
2023-09-24T13:27:42.894Z,18.3
2023-09-24T13:28:47.919Z,18.2
2023-09-24T13:29:52.992Z,18.3
2023-09-24T13:30:57.962Z,18.4
2023-09-24T13:32:03.661Z,18.5
2023-09-24T13:33:07.944Z,18.3
2023-09-24T13:34:13.496Z,18.3
2023-09-24T13:35:18.429Z,18.4
2023-09-24T13:36:23.454Z,18.4
2023-09-24T13:37:28.585Z,18.4
2023-09-24T13:38:36.402Z,18.5
2023-09-24T13:39:41.386Z,18.5
2023-09-24T13:40:46.392Z,18.4
2023-09-24T13:41:51.408Z,18.4
2023-09-24T13:42:56.376Z,18.4
2023-09-24T13:44:01.286Z,18.5
2023-09-24T13:45:06.559Z,18.3
2023-09-24T13:46:11.941Z,18.3
2023-09-24T13:47:16.752Z,18.4
2023-09-24T13:48:21.915Z,18.5
2023-09-24T13:49:26.849Z,18.5
2023-09-24T13:50:31.889Z,18.4
2023-09-24T13:51:37.216Z,18.2
2023-09-24T13:52:42.293Z,18.3
2023-09-24T13:53:47.459Z,18.3
2023-09-24T13:54:52.440Z,18.5
2023-09-24T13:55:57.537Z,18.4
2023-09-24T13:57:02.673Z,18.5
2023-09-24T13:58:07.527Z,18.4
2023-09-24T13:59:12.442Z,18.4
2023-09-24T14:00:17.389Z,18.6
2023-09-24T14:01:22.519Z,18.4
2023-09-24T14:02:27.550Z,18.2
2023-09-24T14:03:32.635Z,18.2
2023-09-24T14:04:37.496Z,18.2
2023-09-24T14:05:43.594Z,18.3
2023-09-24T14:06:48.589Z,18.4
2023-09-24T14:07:53.481Z,18.4
2023-09-24T14:08:58.464Z,18.4
2023-09-24T14:10:08.306Z,18.4
2023-09-24T14:11:18.193Z,18.4
2023-09-24T14:12:28.169Z,18.4
2023-09-24T14:13:33.121Z,18.1
2023-09-24T14:14:38.006Z,18.2
2023-09-24T14:15:43.186Z,18.2
2023-09-24T14:16:49.455Z,18.3
2023-09-24T14:18:07.504Z,18.2
2023-09-24T14:18:59.503Z,17.9
2023-09-24T14:20:04.442Z,18.1
2023-09-24T14:21:10.906Z,18.2
2023-09-24T14:22:15.966Z,18.2
2023-09-24T14:23:20.994Z,18.3
2023-09-24T14:24:26.085Z,18.2
2023-09-24T14:25:31.074Z,18.4
2023-09-24T14:26:36.299Z,18.4
2023-09-24T14:27:41.345Z,18.4
2023-09-24T14:28:46.584Z,18.2
2023-09-24T14:29:51.439Z,18.3
2023-09-24T14:30:56.603Z,18.2
2023-09-24T14:32:01.561Z,18.3
2023-09-24T14:33:06.845Z,18
2023-09-24T14:34:11.706Z,18.2
2023-09-24T14:35:16.777Z,18.2
2023-09-24T14:36:21.793Z,18.1